Terminal Aerodrome Forecast
Issued by NWS

Home | Current Version | Previous Version | Text Only | Print | Product List | Glossary On
Versions: 1 2 3 4 5 6 7 8 9 10 11 12 13 14 15 16 17 18 19 20 21 22 23 24 25 26 27 28
000
FTUS43 KABR 290800 AAA
TAFPIR
TAF AMD
KPIR 290833Z 2909/3006 VRB03KT 1SM BR OVC002
      TEMPO 2909/2912 1/4SM FG BKN001
     FM291200 VRB03KT 1SM BR BKN007
     FM291500 VRB05KT P6SM SKC
     FM291700 35011KT P6SM SKC
     FM292000 35011KT P6SM VCSH BKN040=

USA.gov is the U.S. government's official web portal to all federal, state and local government web resources and services.